createdAt,value
2023-09-06T00:00:24.511Z,101258.34
2023-09-06T00:03:10.927Z,101247.88
2023-09-06T00:05:56.437Z,101251.28
2023-09-06T00:08:41.284Z,101239.00
2023-09-06T00:11:26.202Z,101238.13
2023-09-06T00:14:11.129Z,101238.09
2023-09-06T00:16:56.615Z,101233.88
2023-09-06T00:19:41.674Z,101238.38
2023-09-06T00:22:26.615Z,101236.50
2023-09-06T00:25:11.508Z,101236.50
2023-09-06T00:27:57.059Z,101227.75
2023-09-06T00:30:42.430Z,101245.47
2023-09-06T00:33:27.826Z,101243.53
2023-09-06T00:36:13.146Z,101246.19
2023-09-06T00:38:58.130Z,101255.13
2023-09-06T00:41:42.943Z,101271.69
2023-09-06T00:44:27.798Z,101248.78
2023-09-06T00:47:12.654Z,101258.56
2023-09-06T00:49:57.540Z,101261.44
2023-09-06T00:52:43.964Z,101265.81
2023-09-06T00:55:28.809Z,101272.84
2023-09-06T00:58:15.758Z,101270.22
2023-09-06T01:01:01.375Z,101266.75
2023-09-06T01:03:46.652Z,101269.38
2023-09-06T01:06:35.137Z,101269.28
2023-09-06T01:09:20.395Z,101256.00
2023-09-06T01:12:05.490Z,101247.16
2023-09-06T01:14:50.709Z,101248.09
2023-09-06T01:17:37.081Z,101241.13
2023-09-06T01:20:34.822Z,101250.72
2023-09-06T01:23:30.868Z,101241.09
2023-09-06T01:26:17.410Z,101233.22
2023-09-06T01:29:03.199Z,101226.28
2023-09-06T01:31:48.407Z,101225.31
2023-09-06T01:34:33.740Z,101221.94
2023-09-06T01:37:18.647Z,101220.25
2023-09-06T01:40:05.680Z,101222.09
2023-09-06T01:42:51.079Z,101226.56
2023-09-06T01:45:38.686Z,101223.16
2023-09-06T01:48:23.690Z,101233.59
2023-09-06T01:51:08.708Z,101235.41
2023-09-06T01:53:53.793Z,101247.69
2023-09-06T01:56:38.644Z,101250.22
2023-09-06T01:59:23.582Z,101255.34
2023-09-06T02:02:08.509Z,101248.41
2023-09-06T02:04:53.921Z,101246.81
2023-09-06T02:07:38.737Z,101264.22
2023-09-06T02:10:23.680Z,101286.06
2023-09-06T02:13:08.910Z,101291.25
2023-09-06T02:15:54.080Z,101294.78
2023-09-06T02:18:39.497Z,101296.50
2023-09-06T02:21:24.839Z,101297.38
2023-09-06T02:24:09.939Z,101304.34
2023-09-06T02:26:55.300Z,101299.03
2023-09-06T02:29:41.429Z,101306.91
2023-09-06T02:32:26.715Z,101306.09
2023-09-06T02:35:11.996Z,101299.97
2023-09-06T02:37:57.096Z,101304.25
2023-09-06T02:40:42.246Z,101305.97
2023-09-06T02:43:27.340Z,101312.97
2023-09-06T02:46:12.701Z,101318.19
2023-09-06T02:48:57.439Z,101311.19
2023-09-06T02:51:42.365Z,101315.59
2023-09-06T02:54:27.106Z,101312.91
2023-09-06T02:57:12.038Z,101314.63
2023-09-06T02:59:57.165Z,101318.91
2023-09-06T03:02:42.319Z,101308.53
2023-09-06T03:05:27.094Z,101319.78
2023-09-06T03:08:13.438Z,101319.00
2023-09-06T03:10:58.502Z,101322.47
2023-09-06T03:13:43.760Z,101322.41
2023-09-06T03:16:28.754Z,101324.97
2023-09-06T03:19:13.899Z,101323.38
2023-09-06T03:21:58.794Z,101320.66
2023-09-06T03:24:43.563Z,101314.66
2023-09-06T03:27:28.375Z,101321.59
2023-09-06T03:30:13.297Z,101324.19
2023-09-06T03:32:58.498Z,101326.81
2023-09-06T03:35:44.511Z,101323.97
2023-09-06T03:38:29.541Z,101328.09
2023-09-06T03:41:14.737Z,101336.84
2023-09-06T03:43:59.580Z,101351.56
2023-09-06T03:46:45.040Z,101348.22
2023-09-06T03:49:31.208Z,101351.97
2023-09-06T03:52:16.050Z,101349.34
2023-09-06T03:55:01.033Z,101341.38
2023-09-06T03:57:46.393Z,101340.47
2023-09-06T04:00:31.374Z,101335.31
2023-09-06T04:03:17.960Z,101337.91
2023-09-06T04:06:03.191Z,101338.84
2023-09-06T04:08:48.158Z,101341.25
2023-09-06T04:11:33.479Z,101334.44
2023-09-06T04:14:18.209Z,101339.59
2023-09-06T04:17:03.011Z,101342.06
2023-09-06T04:19:47.863Z,101337.63
2023-09-06T04:22:32.869Z,101341.16
2023-09-06T04:25:17.920Z,101335.22
2023-09-06T04:28:03.168Z,101338.03
2023-09-06T04:30:48.071Z,101341.41
2023-09-06T04:33:33.017Z,101336.13
2023-09-06T04:36:17.818Z,101355.09
2023-09-06T04:39:02.712Z,101354.16
2023-09-06T04:41:47.575Z,101355.78
2023-09-06T04:44:32.559Z,101364.63
2023-09-06T04:47:17.478Z,101369.69
2023-09-06T04:50:02.379Z,101380.16
2023-09-06T04:52:49.605Z,101374.84
2023-09-06T04:55:35.191Z,101386.34
2023-09-06T04:58:20.761Z,101377.00
2023-09-06T05:01:05.700Z,101386.34
2023-09-06T05:03:51.034Z,101374.97
2023-09-06T05:06:36.508Z,101380.19
2023-09-06T05:09:21.370Z,101373.22
2023-09-06T05:12:07.018Z,101382.84
2023-09-06T05:14:53.886Z,101380.34
2023-09-06T05:17:42.715Z,101368.09
2023-09-06T05:20:31.050Z,101391.59
2023-09-06T05:23:16.440Z,101390.66
2023-09-06T05:26:01.374Z,101403.09
2023-09-06T05:28:46.818Z,101392.75
2023-09-06T05:31:31.838Z,101393.00
2023-09-06T05:34:17.539Z,101380.88
2023-09-06T05:37:02.682Z,101380.84
2023-09-06T05:39:47.774Z,101385.16
2023-09-06T05:42:32.925Z,101386.16
2023-09-06T05:45:19.599Z,101393.09
2023-09-06T05:48:04.881Z,101400.16
2023-09-06T05:50:49.994Z,101401.94
2023-09-06T05:53:34.864Z,101407.19
2023-09-06T05:56:19.771Z,101392.41
2023-09-06T05:59:05.156Z,101395.00
2023-09-06T06:01:50.086Z,101386.28
2023-09-06T06:04:35.612Z,101382.75
2023-09-06T06:07:20.955Z,101383.59
2023-09-06T06:10:07.751Z,101386.22
2023-09-06T06:12:52.966Z,101379.19
2023-09-06T06:15:37.973Z,101381.75
2023-09-06T06:18:22.817Z,101385.97
2023-09-06T06:21:07.660Z,101385.00
2023-09-06T06:23:52.477Z,101363.97
2023-09-06T06:26:37.453Z,101356.84
2023-09-06T06:29:22.440Z,101345.38
2023-09-06T06:32:07.751Z,101346.84
2023-09-06T06:35:14.991Z,101327.31
2023-09-06T06:38:00.429Z,101317.50
2023-09-06T06:40:45.214Z,101297.25
2023-09-06T06:43:30.107Z,101286.63
2023-09-06T06:46:24.770Z,101314.88
2023-09-06T06:49:10.752Z,101299.69
2023-09-06T06:51:55.965Z,101268.41
2023-09-06T06:54:41.205Z,101263.34
2023-09-06T06:57:27.246Z,101262.34
2023-09-06T07:00:12.938Z,101261.22
2023-09-06T07:02:58.732Z,101250.69
2023-09-06T07:05:43.501Z,101252.47
2023-09-06T07:08:28.710Z,101227.03
2023-09-06T07:11:15.116Z,101230.41
2023-09-06T07:14:00.645Z,101238.31
2023-09-06T07:16:45.951Z,101243.34
2023-09-06T07:19:31.309Z,101231.00
2023-09-06T07:22:16.538Z,101217.13
2023-09-06T07:25:02.168Z,101209.44
2023-09-06T07:27:47.949Z,101239.81
2023-09-06T07:30:32.703Z,101209.88
2023-09-06T07:33:18.041Z,101213.09
2023-09-06T07:36:03.822Z,101215.63
2023-09-06T07:38:49.368Z,101227.72
2023-09-06T07:41:34.560Z,101192.78
2023-09-06T07:44:20.154Z,101231.59
2023-09-06T07:47:05.331Z,101217.63
2023-09-06T07:49:50.537Z,101203.19
2023-09-06T07:52:36.440Z,101242.84
2023-09-06T07:55:21.358Z,101217.84
2023-09-06T07:58:06.159Z,101224.16
2023-09-06T08:00:59.267Z,101215.16
2023-09-06T08:03:48.539Z,101227.22
2023-09-06T08:06:34.377Z,101208.22
2023-09-06T08:09:20.280Z,101176.63
2023-09-06T08:12:06.845Z,101205.88
2023-09-06T08:14:52.912Z,101244.84
2023-09-06T08:17:38.089Z,101251.38
2023-09-06T08:20:23.271Z,101214.28
2023-09-06T08:23:08.983Z,101176.19
2023-09-06T08:25:53.774Z,101180.81
2023-09-06T08:28:39.848Z,101195.19
2023-09-06T08:31:25.196Z,101179.97
2023-09-06T08:34:11.270Z,101190.03
2023-09-06T08:36:56.416Z,101154.88
2023-09-06T08:39:41.530Z,101175.94
2023-09-06T08:42:28.009Z,101172.81
2023-09-06T08:45:12.837Z,101194.84
2023-09-06T08:47:58.109Z,101214.41
2023-09-06T08:50:45.154Z,101155.75
2023-09-06T08:53:31.936Z,101150.38
2023-09-06T08:56:18.213Z,101159.31
2023-09-06T08:59:03.386Z,101191.69
2023-09-06T09:01:48.614Z,101170.91
2023-09-06T09:04:33.554Z,101167.47
2023-09-06T09:07:18.838Z,101224.06
2023-09-06T09:10:08.235Z,101191.13
2023-09-06T09:12:55.825Z,101203.34
2023-09-06T09:15:41.260Z,101239.88
2023-09-06T09:18:29.803Z,101218.31
2023-09-06T09:21:14.899Z,101209.97
2023-09-06T09:24:01.005Z,101192.25
2023-09-06T09:26:46.372Z,101238.44
2023-09-06T09:29:31.314Z,101230.34
2023-09-06T09:32:16.743Z,101189.78
2023-09-06T09:35:02.502Z,101235.09
2023-09-06T09:37:52.248Z,101220.19
2023-09-06T09:40:52.382Z,101218.53
2023-09-06T09:43:38.274Z,101237.66
2023-09-06T09:46:30.157Z,101229.75
2023-09-06T09:49:17.944Z,101252.59
2023-09-06T09:52:03.378Z,101236.41
2023-09-06T09:54:48.987Z,101249.13
2023-09-06T09:57:35.289Z,101245.78
2023-09-06T10:00:21.840Z,101259.69
2023-09-06T10:03:07.331Z,101254.31
2023-09-06T10:05:54.004Z,101237.34
2023-09-06T10:08:40.816Z,101210.16
2023-09-06T10:11:27.765Z,101194.34
2023-09-06T10:14:13.536Z,101208.09
2023-09-06T10:16:59.720Z,101228.44
2023-09-06T10:19:54.447Z,101221.75
2023-09-06T10:22:44.954Z,101240.69
2023-09-06T10:25:31.250Z,101283.22
2023-09-06T10:28:20.936Z,101226.63
2023-09-06T10:31:06.495Z,101238.69
2023-09-06T10:33:54.431Z,101193.59
2023-09-06T10:36:58.918Z,101206.06
2023-09-06T10:39:53.282Z,101185.09
2023-09-06T10:42:38.230Z,101194.22
2023-09-06T10:45:23.227Z,101155.34
2023-09-06T10:48:11.617Z,101145.47
2023-09-06T10:51:11.203Z,101161.28
2023-09-06T10:53:56.870Z,101183.59
2023-09-06T10:56:51.510Z,101122.34
2023-09-06T10:59:43.367Z,101166.53
2023-09-06T11:02:29.041Z,101157.34
2023-09-06T11:05:32.635Z,101123.22
2023-09-06T11:08:29.633Z,101163.94
2023-09-06T11:11:14.788Z,101147.88
2023-09-06T11:14:02.308Z,101151.16
2023-09-06T11:16:47.974Z,101151.44
2023-09-06T11:19:33.405Z,101169.06
2023-09-06T11:22:21.537Z,101139.84
2023-09-06T11:25:19.949Z,101142.25
2023-09-06T11:28:19.422Z,101124.25
2023-09-06T11:31:04.962Z,101155.78
2023-09-06T11:34:03.144Z,101144.22
2023-09-06T11:36:48.280Z,101102.47
2023-09-06T11:39:33.395Z,101124.16
2023-09-06T11:42:18.555Z,101135.56
2023-09-06T11:45:03.897Z,101127.28
2023-09-06T11:47:49.555Z,101107.22
2023-09-06T11:50:38.713Z,101075.28
2023-09-06T11:53:24.862Z,101114.19
2023-09-06T11:56:11.097Z,101063.47
2023-09-06T11:59:01.618Z,101116.91
2023-09-06T12:01:46.611Z,101080.13
2023-09-06T12:04:31.982Z,101093.13
2023-09-06T12:07:17.315Z,101134.91
2023-09-06T12:10:02.616Z,101064.72
2023-09-06T12:12:49.844Z,101063.25
2023-09-06T12:15:35.129Z,101045.22
2023-09-06T12:18:20.024Z,101006.06
2023-09-06T12:21:06.432Z,101013.34
2023-09-06T12:23:51.617Z,100987.44
2023-09-06T12:26:36.320Z,100990.72
2023-09-06T12:29:21.701Z,101015.38
2023-09-06T12:32:06.801Z,100990.59
2023-09-06T12:34:51.724Z,100882.53
2023-09-06T12:37:38.392Z,100919.34
2023-09-06T12:40:23.402Z,100890.22
2023-09-06T12:43:08.860Z,100947.19
2023-09-06T12:45:54.928Z,100938.38
2023-09-06T12:48:40.408Z,100915.09
2023-09-06T12:51:25.677Z,100913.72
2023-09-06T12:54:11.187Z,100928.69
2023-09-06T12:56:56.638Z,100926.00
2023-09-06T12:59:42.092Z,100917.97
2023-09-06T13:02:27.194Z,100926.47
2023-09-06T13:05:12.923Z,100939.84
2023-09-06T13:08:01.534Z,100867.53
2023-09-06T13:10:46.532Z,100936.28
2023-09-06T13:13:32.013Z,100919.63
2023-09-06T13:16:16.894Z,100941.59
2023-09-06T13:19:01.855Z,100926.69
2023-09-06T13:21:47.115Z,100937.66
2023-09-06T13:24:32.477Z,100881.16
2023-09-06T13:27:18.289Z,100936.88
2023-09-06T13:30:04.513Z,100944.75
2023-09-06T13:32:50.229Z,100979.06
2023-09-06T13:35:35.402Z,100986.13
2023-09-06T13:38:20.326Z,100956.97
2023-09-06T13:41:05.174Z,101017.59
2023-09-06T13:43:50.528Z,101012.25
2023-09-06T13:46:36.909Z,101009.28
2023-09-06T13:49:21.711Z,101020.91
2023-09-06T13:52:07.925Z,101028.84
2023-09-06T13:54:53.136Z,101017.13
2023-09-06T13:57:38.004Z,100988.44
2023-09-06T14:00:24.420Z,100970.47
2023-09-06T14:03:09.390Z,100983.84
2023-09-06T14:05:54.724Z,100923.66
2023-09-06T14:08:40.893Z,100886.50
2023-09-06T14:11:25.940Z,100919.78
2023-09-06T14:14:10.998Z,100930.19
2023-09-06T14:16:56.375Z,100916.63
2023-09-06T14:19:41.410Z,100919.56
2023-09-06T14:22:26.384Z,100939.13
2023-09-06T14:25:11.835Z,100936.44
2023-09-06T14:27:57.278Z,100928.63
2023-09-06T14:30:43.523Z,100948.09
2023-09-06T14:33:29.320Z,100952.78
2023-09-06T14:36:14.593Z,100968.47
2023-09-06T14:38:59.522Z,100997.03
2023-09-06T14:41:45.044Z,100979.06
2023-09-06T14:44:29.948Z,100983.94
2023-09-06T14:47:15.534Z,100981.88
2023-09-06T14:50:00.730Z,100983.00
2023-09-06T14:52:45.625Z,100983.63
2023-09-06T14:55:31.878Z,100999.25
2023-09-06T14:58:17.025Z,100985.59
2023-09-06T15:01:01.999Z,100984.81
2023-09-06T15:03:47.438Z,101018.47
2023-09-06T15:06:48.003Z,101011.16
2023-09-06T15:09:37.929Z,101002.72
2023-09-06T15:12:22.767Z,101000.25
2023-09-06T15:15:09.849Z,101004.44
2023-09-06T15:17:57.242Z,101014.94
2023-09-06T15:20:44.409Z,100992.31
2023-09-06T15:23:29.351Z,101005.78
2023-09-06T15:26:14.287Z,101011.16
2023-09-06T15:28:59.145Z,101011.44
2023-09-06T15:31:44.170Z,101034.72
2023-09-06T15:34:29.321Z,101029.81
2023-09-06T15:37:14.178Z,101034.25
2023-09-06T15:39:59.062Z,101037.13
2023-09-06T15:42:44.443Z,101055.25
2023-09-06T15:45:29.259Z,101054.13
2023-09-06T15:48:14.097Z,101058.13
2023-09-06T15:50:58.928Z,101044.84
2023-09-06T15:53:44.332Z,101018.84
2023-09-06T15:56:29.650Z,101028.56
2023-09-06T15:59:14.433Z,101016.44
2023-09-06T16:01:59.445Z,101057.19
2023-09-06T16:04:44.682Z,101038.19
2023-09-06T16:07:29.670Z,101015.22
2023-09-06T16:10:14.624Z,101033.56
2023-09-06T16:12:59.474Z,101026.00
2023-09-06T16:15:44.233Z,101015.75
2023-09-06T16:18:29.408Z,101025.19
2023-09-06T16:21:14.591Z,101001.16
2023-09-06T16:24:00.063Z,101033.47
2023-09-06T16:26:46.854Z,100993.59
2023-09-06T16:29:32.390Z,101018.31
2023-09-06T16:32:17.559Z,101032.25
2023-09-06T16:35:03.277Z,101022.97
2023-09-06T16:37:48.553Z,101037.41
2023-09-06T16:40:36.895Z,101007.47
2023-09-06T16:43:21.978Z,100993.22
2023-09-06T16:46:07.073Z,101004.81
2023-09-06T16:48:52.537Z,101018.16
2023-09-06T16:51:37.460Z,100994.72
2023-09-06T16:54:22.472Z,100986.06
2023-09-06T16:57:07.211Z,101000.03
2023-09-06T16:59:52.575Z,100995.47
2023-09-06T17:02:37.387Z,101004.41
2023-09-06T17:05:22.876Z,100996.16
2023-09-06T17:08:08.282Z,101012.28
2023-09-06T17:10:53.554Z,101032.41
2023-09-06T17:13:38.527Z,101026.34
2023-09-06T17:16:24.423Z,101035.75
2023-09-06T17:19:11.116Z,101083.03
2023-09-06T17:21:57.014Z,101036.84
2023-09-06T17:24:42.147Z,101057.66
2023-09-06T17:27:28.103Z,101073.28
2023-09-06T17:30:14.436Z,101140.22
2023-09-06T17:33:15.436Z,101184.56
2023-09-06T17:36:00.746Z,101216.81
2023-09-06T17:38:45.589Z,101216.16
2023-09-06T17:41:30.589Z,101206.47
2023-09-06T17:44:16.013Z,101200.34
2023-09-06T17:47:01.009Z,101238.88
2023-09-06T17:49:45.894Z,101245.31
2023-09-06T17:52:31.253Z,101243.16
2023-09-06T17:55:17.246Z,101232.88
2023-09-06T17:58:01.943Z,101243.97
2023-09-06T18:00:47.275Z,101251.31
2023-09-06T18:03:32.318Z,101259.16
2023-09-06T18:06:18.466Z,101239.19
2023-09-06T18:09:03.645Z,101189.06
2023-09-06T18:11:48.469Z,101162.94
2023-09-06T18:14:33.484Z,101157.03
2023-09-06T18:17:18.387Z,101170.22
2023-09-06T18:20:03.825Z,101168.34
2023-09-06T18:22:48.740Z,101169.50
2023-09-06T18:25:33.675Z,101185.50
2023-09-06T18:28:18.508Z,101199.13
2023-09-06T18:31:03.874Z,101185.28
2023-09-06T18:33:49.317Z,101171.09
2023-09-06T18:36:34.114Z,101174.72
2023-09-06T18:39:19.554Z,101174.97
2023-09-06T18:42:04.546Z,101188.34
2023-09-06T18:44:49.699Z,101188.28
2023-09-06T18:47:34.615Z,101199.22
2023-09-06T18:50:20.834Z,101208.91
2023-09-06T18:53:07.309Z,101202.91
2023-09-06T18:55:52.370Z,101197.22
2023-09-06T18:58:37.736Z,101188.50
2023-09-06T19:01:23.202Z,101207.97
2023-09-06T19:04:08.474Z,101249.44
2023-09-06T19:06:54.032Z,101228.59
2023-09-06T19:09:38.779Z,101237.38
2023-09-06T19:12:23.741Z,101231.59
2023-09-06T19:15:09.685Z,101225.69
2023-09-06T19:17:54.979Z,101231.94
2023-09-06T19:20:39.991Z,101245.66
2023-09-06T19:23:25.266Z,101242.03
2023-09-06T19:26:10.218Z,101241.50
2023-09-06T19:28:55.102Z,101229.25
2023-09-06T19:31:40.038Z,101244.41
2023-09-06T19:34:24.830Z,101278.50
2023-09-06T19:37:10.209Z,101300.81
2023-09-06T19:39:55.028Z,101318.44
2023-09-06T19:42:39.902Z,101327.25
2023-09-06T19:45:24.823Z,101330.44
2023-09-06T19:48:09.769Z,101335.06
2023-09-06T19:50:54.664Z,101314.34
2023-09-06T19:53:39.953Z,101271.19
2023-09-06T19:56:25.409Z,101248.00
2023-09-06T19:59:10.149Z,101249.72
2023-09-06T20:01:55.058Z,101275.44
2023-09-06T20:04:40.739Z,101307.31
2023-09-06T20:07:27.574Z,101320.50
2023-09-06T20:10:14.340Z,101317.47
2023-09-06T20:12:59.679Z,101290.22
2023-09-06T20:15:44.734Z,101274.47
2023-09-06T20:18:30.573Z,101293.59
2023-09-06T20:21:15.834Z,101304.41
2023-09-06T20:24:00.762Z,101297.50
2023-09-06T20:26:45.720Z,101285.09
2023-09-06T20:29:30.578Z,101271.69
2023-09-06T20:32:15.320Z,101273.47
2023-09-06T20:35:00.172Z,101273.47
2023-09-06T20:37:45.048Z,101269.75
2023-09-06T20:40:30.474Z,101275.88
2023-09-06T20:43:15.762Z,101267.94
2023-09-06T20:46:00.946Z,101266.31
2023-09-06T20:48:46.100Z,101274.41
2023-09-06T20:51:30.898Z,101296.66
2023-09-06T20:54:15.877Z,101290.31
2023-09-06T20:57:01.248Z,101289.53
2023-09-06T20:59:46.118Z,101295.84
2023-09-06T21:02:31.031Z,101302.88
2023-09-06T21:05:16.014Z,101309.78
2023-09-06T21:08:00.857Z,101325.28
2023-09-06T21:10:45.622Z,101319.72
2023-09-06T21:13:30.519Z,101320.03
2023-09-06T21:16:15.971Z,101325.38
2023-09-06T21:19:01.278Z,101332.50
2023-09-06T21:21:46.279Z,101327.31
2023-09-06T21:24:31.277Z,101334.50
2023-09-06T21:27:16.638Z,101345.22
2023-09-06T21:30:01.408Z,101334.69
2023-09-06T21:32:46.401Z,101328.38
2023-09-06T21:35:31.182Z,101319.34
2023-09-06T21:38:16.186Z,101313.16
2023-09-06T21:41:00.938Z,101304.22
2023-09-06T21:43:45.720Z,101294.44
2023-09-06T21:46:30.799Z,101295.97
2023-09-06T21:49:15.765Z,101290.50
2023-09-06T21:52:00.565Z,101291.19
2023-09-06T21:54:45.665Z,101283.34
2023-09-06T21:57:30.740Z,101284.97
2023-09-06T22:00:15.933Z,101291.94
2023-09-06T22:03:01.229Z,101275.13
2023-09-06T22:05:49.163Z,101275.19
2023-09-06T22:08:34.289Z,101278.69
2023-09-06T22:11:19.594Z,101277.69
2023-09-06T22:14:04.539Z,101282.97
2023-09-06T22:16:49.522Z,101279.28
2023-09-06T22:19:34.548Z,101273.03
2023-09-06T22:22:19.760Z,101274.97
2023-09-06T22:25:08.260Z,101278.63
2023-09-06T22:27:53.733Z,101281.44
2023-09-06T22:30:41.640Z,101281.41
2023-09-06T22:33:26.439Z,101275.06
2023-09-06T22:36:11.304Z,101270.78
2023-09-06T22:38:56.735Z,101273.50
2023-09-06T22:41:41.726Z,101270.84
2023-09-06T22:44:26.613Z,101275.41
2023-09-06T22:47:11.582Z,101274.44
2023-09-06T22:49:56.496Z,101280.94
2023-09-06T22:52:41.565Z,101275.59
2023-09-06T22:55:27.333Z,101276.75
2023-09-06T22:58:12.237Z,101296.19
2023-09-06T23:01:07.365Z,101305.09
2023-09-06T23:03:52.826Z,101315.72
2023-09-06T23:06:38.043Z,101311.56
2023-09-06T23:09:22.994Z,101322.03
2023-09-06T23:12:07.836Z,101318.69
2023-09-06T23:14:53.290Z,101341.41
2023-09-06T23:17:38.273Z,101306.38
2023-09-06T23:20:23.990Z,101308.16
2023-09-06T23:23:09.112Z,101301.38
2023-09-06T23:25:54.189Z,101289.31
2023-09-06T23:28:39.178Z,101291.13
2023-09-06T23:31:24.945Z,101291.09
2023-09-06T23:34:10.095Z,101299.16
2023-09-06T23:36:55.735Z,101314.22
2023-09-06T23:39:40.757Z,101320.53
2023-09-06T23:42:25.601Z,101337.28
2023-09-06T23:45:10.557Z,101326.78
2023-09-06T23:47:57.723Z,101330.38
2023-09-06T23:50:44.503Z,101324.09
2023-09-06T23:53:29.941Z,101313.59
2023-09-06T23:56:15.409Z,101304.06
2023-09-06T23:59:00.116Z,101320.66
